createdAt,value
2023-04-06T00:00:15.470Z,3.38
2023-04-06T00:02:41.946Z,3.35
2023-04-06T00:05:08.716Z,3.32
2023-04-06T00:07:35.396Z,3.31
2023-04-06T00:10:02.210Z,3.25
2023-04-06T00:12:28.613Z,3.28
2023-04-06T00:14:55.218Z,3.26
2023-04-06T00:17:21.730Z,3.24
2023-04-06T00:19:48.121Z,3.24
2023-04-06T00:22:14.592Z,3.21
2023-04-06T00:24:41.061Z,3.21
2023-04-06T00:27:07.488Z,3.12
2023-04-06T00:29:33.893Z,3.06
2023-04-06T00:32:00.533Z,3.00
2023-04-06T00:34:27.002Z,3.07
2023-04-06T00:36:53.444Z,3.04
2023-04-06T00:39:21.083Z,3.01
2023-04-06T00:41:52.448Z,3.06
2023-04-06T00:44:19.680Z,3.04
2023-04-06T00:46:46.202Z,3.03
2023-04-06T00:49:12.627Z,3.00
2023-04-06T00:51:39.102Z,2.96
2023-04-06T00:54:06.065Z,2.84
2023-04-06T00:56:34.472Z,2.81
2023-04-06T00:59:01.407Z,2.79
2023-04-06T01:01:30.534Z,2.81
2023-04-06T01:04:01.245Z,2.81
2023-04-06T01:06:27.711Z,2.79
2023-04-06T01:08:59.184Z,2.73
2023-04-06T01:11:27.228Z,2.72
2023-04-06T01:13:54.311Z,2.67
2023-04-06T01:16:32.403Z,2.65
2023-04-06T01:19:12.956Z,2.66
2023-04-06T01:21:43.988Z,2.61
2023-04-06T01:24:27.531Z,2.60
2023-04-06T01:27:02.336Z,2.56
2023-04-06T01:29:37.172Z,2.54
2023-04-06T01:32:06.405Z,2.49
2023-04-06T01:34:37.997Z,2.46
2023-04-06T01:37:06.155Z,2.39
2023-04-06T01:39:32.635Z,2.43
2023-04-06T01:42:01.746Z,2.37
2023-04-06T01:44:31.168Z,2.34
2023-04-06T01:47:06.730Z,2.29
2023-04-06T01:49:33.380Z,2.33
2023-04-06T01:52:00.607Z,2.31
2023-04-06T01:54:27.072Z,2.37
2023-04-06T01:57:11.811Z,2.35
2023-04-06T01:59:43.484Z,2.46
2023-04-06T02:02:18.517Z,2.32
2023-04-06T02:04:54.403Z,2.15
2023-04-06T02:07:20.971Z,2.18
2023-04-06T02:09:47.528Z,2.15
2023-04-06T02:12:22.186Z,2.11
2023-04-06T02:14:48.625Z,2.08
2023-04-06T02:17:15.404Z,2.09
2023-04-06T02:19:41.941Z,2.08
2023-04-06T02:22:08.401Z,2.08
2023-04-06T02:24:34.816Z,2.03
2023-04-06T02:27:01.526Z,1.98
2023-04-06T02:29:27.987Z,1.91
2023-04-06T02:31:54.802Z,1.89
2023-04-06T02:34:21.842Z,1.87
2023-04-06T02:36:51.833Z,1.86
2023-04-06T02:39:18.534Z,1.87
2023-04-06T02:41:44.955Z,1.88
2023-04-06T02:44:14.942Z,1.81
2023-04-06T02:46:43.395Z,1.85
2023-04-06T02:49:10.000Z,1.83
2023-04-06T02:51:36.610Z,1.75
2023-04-06T02:54:15.039Z,1.73
2023-04-06T02:56:41.481Z,1.72
2023-04-06T02:59:08.266Z,1.68
2023-04-06T03:01:35.333Z,1.71
2023-04-06T03:04:04.618Z,1.64
2023-04-06T03:06:31.381Z,1.56
2023-04-06T03:09:04.724Z,1.56
2023-04-06T03:11:32.971Z,1.63
2023-04-06T03:14:00.141Z,1.63
2023-04-06T03:16:26.774Z,1.53
2023-04-06T03:18:53.544Z,1.53
2023-04-06T03:21:20.566Z,1.53
2023-04-06T03:23:51.932Z,1.56
2023-04-06T03:26:18.701Z,1.68
2023-04-06T03:28:45.296Z,1.66
2023-04-06T03:31:11.871Z,1.59
2023-04-06T03:33:46.315Z,1.49
2023-04-06T03:36:21.854Z,1.41
2023-04-06T03:38:48.404Z,1.46
2023-04-06T03:41:15.232Z,1.31
2023-04-06T03:43:48.430Z,1.33
2023-04-06T03:46:14.866Z,1.33
2023-04-06T03:48:41.315Z,1.37
2023-04-06T03:51:07.736Z,1.27
2023-04-06T03:53:34.162Z,1.22
2023-04-06T03:56:02.732Z,1.24
2023-04-06T03:58:30.605Z,1.27
2023-04-06T04:00:57.083Z,1.27
2023-04-06T04:03:24.617Z,1.24
2023-04-06T04:05:51.948Z,1.28
2023-04-06T04:08:18.741Z,1.25
2023-04-06T04:10:45.814Z,1.24
2023-04-06T04:13:13.167Z,1.19
2023-04-06T04:15:41.660Z,1.21
2023-04-06T04:18:09.476Z,1.24
2023-04-06T04:20:36.184Z,1.27
2023-04-06T04:23:02.652Z,1.27
2023-04-06T04:25:32.072Z,1.28
2023-04-06T04:27:58.741Z,1.32
2023-04-06T04:30:25.179Z,1.32
2023-04-06T04:32:51.692Z,1.31
2023-04-06T04:35:21.346Z,1.25
2023-04-06T04:37:47.864Z,1.27
2023-04-06T04:40:14.433Z,1.27
2023-04-06T04:42:52.197Z,1.26
2023-04-06T04:45:30.068Z,1.27
2023-04-06T04:47:58.895Z,1.25
2023-04-06T04:50:30.785Z,1.21
2023-04-06T04:52:58.481Z,1.24
2023-04-06T04:55:27.035Z,1.29
2023-04-06T04:57:56.297Z,1.28
2023-04-06T05:00:31.625Z,1.25
2023-04-06T05:02:59.274Z,1.36
2023-04-06T05:05:28.689Z,1.32
2023-04-06T05:07:55.273Z,1.28
2023-04-06T05:10:36.330Z,1.33
2023-04-06T05:13:03.464Z,1.38
2023-04-06T05:15:29.994Z,1.52
2023-04-06T05:18:02.444Z,1.67
2023-04-06T05:20:32.723Z,1.88
2023-04-06T05:22:59.863Z,1.88
2023-04-06T05:25:26.682Z,1.92
2023-04-06T05:27:56.658Z,1.93
2023-04-06T05:30:28.934Z,2.26
2023-04-06T05:32:55.617Z,2.53
2023-04-06T05:35:24.461Z,2.67
2023-04-06T05:37:54.703Z,2.83
2023-04-06T05:40:24.215Z,3.08
2023-04-06T05:42:51.193Z,3.30
2023-04-06T05:45:19.348Z,3.49
2023-04-06T05:47:51.228Z,3.53
2023-04-06T05:50:27.614Z,3.84
2023-04-06T05:52:54.096Z,3.87
2023-04-06T05:55:22.693Z,3.55
2023-04-06T05:57:56.728Z,4.12
2023-04-06T06:00:23.211Z,4.45
2023-04-06T06:03:00.375Z,4.76
2023-04-06T06:05:30.013Z,4.77
2023-04-06T06:08:02.973Z,4.96
2023-04-06T06:10:30.187Z,5.27
2023-04-06T06:12:56.895Z,5.32
2023-04-06T06:15:23.411Z,5.58
2023-04-06T06:17:49.866Z,5.64
2023-04-06T06:20:17.311Z,5.83
2023-04-06T06:22:44.359Z,6.15
2023-04-06T06:25:16.621Z,6.00
2023-04-06T06:27:45.474Z,6.30
2023-04-06T06:30:12.164Z,6.58
2023-04-06T06:32:41.578Z,6.61
2023-04-06T06:35:09.130Z,6.85
2023-04-06T06:37:35.625Z,6.95
2023-04-06T06:40:02.934Z,7.05
2023-04-06T06:42:31.539Z,7.11
2023-04-06T06:45:08.286Z,7.32
2023-04-06T06:47:34.770Z,7.56
2023-04-06T06:50:01.284Z,7.71
2023-04-06T06:52:27.839Z,7.82
2023-04-06T06:54:56.413Z,7.96
2023-04-06T06:57:23.962Z,7.99
2023-04-06T06:59:51.008Z,8.34
2023-04-06T07:02:19.394Z,8.48
2023-04-06T07:04:49.301Z,8.68
2023-04-06T07:07:16.384Z,8.68
2023-04-06T07:09:43.238Z,8.65
2023-04-06T07:12:09.729Z,8.74
2023-04-06T07:14:37.704Z,8.61
2023-04-06T07:17:04.222Z,8.89
2023-04-06T07:19:31.847Z,9.04
2023-04-06T07:21:58.402Z,8.84
2023-04-06T07:24:27.427Z,9.14
2023-04-06T07:26:53.867Z,9.34
2023-04-06T07:29:20.629Z,9.32
2023-04-06T07:31:47.599Z,9.19
2023-04-06T07:34:15.527Z,9.35
2023-04-06T07:36:42.218Z,9.50
2023-04-06T07:39:08.827Z,9.66
2023-04-06T07:41:36.158Z,9.63
2023-04-06T07:44:02.630Z,9.92
2023-04-06T07:46:29.208Z,9.93
2023-04-06T07:48:58.253Z,10.15
2023-04-06T07:51:26.503Z,10.12
2023-04-06T07:53:53.098Z,10.41
2023-04-06T07:56:19.571Z,10.59
2023-04-06T07:58:45.996Z,10.75
2023-04-06T08:01:12.405Z,10.85
2023-04-06T08:03:39.014Z,10.65
2023-04-06T08:06:06.101Z,10.69
2023-04-06T08:08:32.778Z,10.97
2023-04-06T08:11:01.483Z,10.86
2023-04-06T08:13:29.067Z,10.73
2023-04-06T08:15:55.905Z,10.89
2023-04-06T08:18:23.395Z,11.16
2023-04-06T08:20:50.649Z,11.34
2023-04-06T08:23:17.046Z,11.21
2023-04-06T08:25:44.163Z,11.48
2023-04-06T08:28:10.621Z,11.44
2023-04-06T08:30:38.166Z,11.66
2023-04-06T08:33:04.577Z,11.71
2023-04-06T08:35:31.019Z,11.81
2023-04-06T08:37:57.933Z,11.78
2023-04-06T08:40:24.372Z,11.70
2023-04-06T08:42:54.969Z,11.71
2023-04-06T08:45:22.329Z,11.87
2023-04-06T08:47:51.090Z,11.99
2023-04-06T08:50:18.130Z,11.93
2023-04-06T08:52:49.293Z,12.02
2023-04-06T08:55:16.336Z,12.20
2023-04-06T08:57:44.352Z,11.98
2023-04-06T09:00:12.047Z,12.03
2023-04-06T09:02:44.601Z,12.15
2023-04-06T09:05:11.364Z,12.27
2023-04-06T09:07:38.333Z,12.40
2023-04-06T09:10:08.221Z,12.38
2023-04-06T09:12:35.522Z,12.51
2023-04-06T09:15:02.993Z,12.23
2023-04-06T09:17:34.557Z,12.51
2023-04-06T09:20:01.975Z,12.59
2023-04-06T09:22:39.756Z,12.62
2023-04-06T09:25:07.191Z,12.53
2023-04-06T09:27:35.551Z,12.79
2023-04-06T09:30:07.621Z,12.37
2023-04-06T09:32:46.604Z,12.62
2023-04-06T09:35:13.497Z,12.52
2023-04-06T09:37:39.916Z,12.43
2023-04-06T09:40:08.316Z,12.33
2023-04-06T09:42:35.901Z,12.76
2023-04-06T09:45:03.750Z,12.64
2023-04-06T09:47:34.260Z,12.48
2023-04-06T09:50:01.728Z,12.58
2023-04-06T09:52:38.264Z,12.73
2023-04-06T09:55:06.294Z,12.89
2023-04-06T09:57:51.360Z,12.99
2023-04-06T10:00:20.246Z,13.12
2023-04-06T10:02:59.121Z,13.04
2023-04-06T10:05:38.415Z,13.00
2023-04-06T10:08:09.513Z,12.81
2023-04-06T10:10:36.187Z,13.08
2023-04-06T10:13:03.053Z,13.10
2023-04-06T10:15:30.836Z,13.24
2023-04-06T10:18:01.622Z,13.49
2023-04-06T10:20:51.397Z,13.35
2023-04-06T10:23:32.008Z,13.34
2023-04-06T10:26:00.522Z,13.08
2023-04-06T10:28:32.083Z,13.15
2023-04-06T10:31:00.249Z,13.38
2023-04-06T10:33:27.585Z,13.45
2023-04-06T10:35:54.937Z,13.58
2023-04-06T10:38:22.947Z,13.38
2023-04-06T10:40:49.792Z,13.53
2023-04-06T10:43:23.433Z,13.75
2023-04-06T10:45:57.770Z,13.92
2023-04-06T10:48:25.038Z,12.85
2023-04-06T10:50:53.431Z,12.87
2023-04-06T10:53:25.047Z,13.30
2023-04-06T10:55:52.737Z,12.87
2023-04-06T10:58:19.879Z,13.24
2023-04-06T11:00:50.654Z,13.41
2023-04-06T11:03:18.925Z,13.55
2023-04-06T11:05:48.203Z,13.71
2023-04-06T11:08:44.161Z,13.77
2023-04-06T11:11:19.488Z,13.64
2023-04-06T11:13:58.003Z,13.19
2023-04-06T11:16:32.622Z,13.51
2023-04-06T11:18:59.014Z,13.52
2023-04-06T11:21:49.342Z,13.62
2023-04-06T11:24:20.527Z,13.46
2023-04-06T11:26:50.032Z,13.64
2023-04-06T11:29:18.593Z,13.73
2023-04-06T11:31:50.079Z,13.75
2023-04-06T11:34:21.092Z,13.68
2023-04-06T11:36:48.375Z,13.94
2023-04-06T11:39:20.389Z,13.04
2023-04-06T11:41:54.023Z,13.54
2023-04-06T11:44:32.948Z,13.21
2023-04-06T11:46:59.802Z,13.19
2023-04-06T11:49:30.417Z,13.05
2023-04-06T11:51:58.325Z,13.14
2023-04-06T11:54:34.484Z,13.33
2023-04-06T11:57:01.658Z,13.37
2023-04-06T11:59:28.332Z,13.10
2023-04-06T12:01:54.817Z,13.20
2023-04-06T12:04:21.667Z,13.82
2023-04-06T12:06:49.171Z,14.07
2023-04-06T12:09:16.443Z,14.33
2023-04-06T12:11:42.919Z,14.12
2023-04-06T12:14:09.624Z,14.07
2023-04-06T12:16:36.464Z,13.92
2023-04-06T12:19:04.251Z,13.39
2023-04-06T12:21:34.925Z,13.17
2023-04-06T12:24:02.284Z,13.10
2023-04-06T12:26:29.065Z,13.30
2023-04-06T12:28:55.464Z,13.25
2023-04-06T12:31:23.665Z,12.98
2023-04-06T12:33:51.278Z,12.98
2023-04-06T12:36:20.139Z,13.50
2023-04-06T12:38:48.653Z,13.69
2023-04-06T12:41:15.780Z,13.85
2023-04-06T12:43:42.921Z,13.11
2023-04-06T12:46:09.531Z,12.96
2023-04-06T12:48:36.502Z,12.86
2023-04-06T12:51:04.770Z,13.87
2023-04-06T12:53:31.713Z,13.84
2023-04-06T12:55:59.123Z,14.19
2023-04-06T12:58:27.685Z,13.98
2023-04-06T13:00:54.134Z,13.82
2023-04-06T13:03:22.074Z,13.61
2023-04-06T13:05:49.835Z,13.78
2023-04-06T13:08:17.079Z,13.98
2023-04-06T13:10:51.753Z,13.17
2023-04-06T13:13:19.050Z,13.43
2023-04-06T13:15:45.985Z,13.39
2023-04-06T13:18:12.511Z,13.20
2023-04-06T13:20:38.955Z,13.60
2023-04-06T13:23:05.393Z,14.15
2023-04-06T13:25:33.619Z,13.90
2023-04-06T13:28:00.300Z,14.08
2023-04-06T13:30:26.984Z,13.56
2023-04-06T13:32:53.394Z,13.50
2023-04-06T13:35:19.863Z,13.69
2023-04-06T13:37:46.278Z,13.75
2023-04-06T13:40:12.865Z,13.78
2023-04-06T13:42:41.666Z,14.23
2023-04-06T13:45:08.860Z,14.38
2023-04-06T13:47:35.874Z,14.81
2023-04-06T13:50:02.340Z,14.53
2023-04-06T13:52:28.735Z,14.68
2023-04-06T13:54:55.301Z,14.49
2023-04-06T13:57:21.747Z,14.25
2023-04-06T13:59:48.914Z,14.47
2023-04-06T14:02:15.572Z,14.99
2023-04-06T14:04:42.132Z,14.70
2023-04-06T14:07:08.578Z,14.13
2023-04-06T14:09:35.463Z,14.44
2023-04-06T14:12:01.906Z,14.73
2023-04-06T14:14:28.505Z,14.41
2023-04-06T14:16:55.547Z,14.45
2023-04-06T14:19:22.561Z,14.75
2023-04-06T14:21:49.806Z,15.20
2023-04-06T14:24:16.949Z,14.28
2023-04-06T14:26:43.739Z,14.28
2023-04-06T14:29:10.608Z,14.98
2023-04-06T14:31:37.942Z,15.07
2023-04-06T14:34:04.754Z,14.69
2023-04-06T14:36:38.809Z,14.36
2023-04-06T14:39:06.809Z,14.87
2023-04-06T14:41:34.460Z,15.13
2023-04-06T14:44:01.266Z,15.19
2023-04-06T14:46:28.286Z,14.82
2023-04-06T14:48:58.676Z,14.29
2023-04-06T14:51:28.107Z,14.08
2023-04-06T14:53:55.065Z,14.54
2023-04-06T14:56:23.001Z,14.75
2023-04-06T14:58:51.650Z,14.65
2023-04-06T15:01:19.414Z,14.58
2023-04-06T15:03:46.123Z,13.89
2023-04-06T15:06:16.143Z,14.20
2023-04-06T15:08:46.242Z,14.51
2023-04-06T15:11:13.618Z,14.63
2023-04-06T15:13:40.867Z,14.45
2023-04-06T15:16:07.793Z,14.20
2023-04-06T15:18:35.823Z,14.52
2023-04-06T15:21:02.501Z,14.80
2023-04-06T15:23:31.038Z,15.03
2023-04-06T15:25:58.724Z,14.88
2023-04-06T15:28:25.256Z,14.94
2023-04-06T15:30:51.938Z,15.10
2023-04-06T15:33:21.094Z,15.25
2023-04-06T15:35:47.623Z,15.03
2023-04-06T15:38:14.165Z,14.82
2023-04-06T15:40:48.594Z,14.90
2023-04-06T15:43:15.951Z,14.83
2023-04-06T15:45:42.524Z,14.85
2023-04-06T15:48:09.486Z,14.82
2023-04-06T15:50:36.549Z,14.77
2023-04-06T15:53:03.041Z,14.22
2023-04-06T15:55:29.461Z,13.80
2023-04-06T15:57:56.100Z,14.14
2023-04-06T16:00:22.776Z,13.87
2023-04-06T16:02:49.348Z,13.43
2023-04-06T16:05:15.916Z,13.51
2023-04-06T16:07:43.025Z,13.48
2023-04-06T16:10:10.031Z,13.43
2023-04-06T16:12:36.422Z,13.12
2023-04-06T16:15:02.945Z,13.28
2023-04-06T16:17:29.463Z,13.00
2023-04-06T16:19:56.129Z,12.66
2023-04-06T16:22:22.537Z,12.48
2023-04-06T16:24:48.915Z,12.55
2023-04-06T16:27:15.677Z,12.66
2023-04-06T16:29:42.080Z,12.99
2023-04-06T16:32:11.043Z,12.80
2023-04-06T16:34:37.712Z,12.84
2023-04-06T16:37:04.123Z,12.80
2023-04-06T16:39:30.608Z,12.96
2023-04-06T16:41:57.445Z,12.65
2023-04-06T16:44:23.975Z,12.22
2023-04-06T16:46:50.952Z,12.30
2023-04-06T16:49:19.380Z,12.23
2023-04-06T16:51:45.960Z,12.53
2023-04-06T16:54:12.374Z,12.45
2023-04-06T16:56:38.774Z,12.26
2023-04-06T16:59:08.028Z,12.01
2023-04-06T17:01:34.520Z,11.80
2023-04-06T17:04:02.003Z,11.79
2023-04-06T17:06:28.583Z,11.90
2023-04-06T17:08:55.025Z,11.92
2023-04-06T17:11:27.775Z,11.96
2023-04-06T17:13:54.850Z,12.03
2023-04-06T17:16:21.504Z,12.10
2023-04-06T17:18:47.944Z,11.94
2023-04-06T17:21:14.604Z,11.75
2023-04-06T17:23:41.640Z,11.80
2023-04-06T17:26:08.314Z,11.72
2023-04-06T17:28:34.770Z,11.73
2023-04-06T17:31:01.325Z,11.63
2023-04-06T17:33:28.278Z,11.34
2023-04-06T17:35:54.730Z,11.53
2023-04-06T17:38:21.426Z,11.41
2023-04-06T17:40:47.831Z,11.20
2023-04-06T17:43:14.247Z,11.26
2023-04-06T17:45:40.734Z,11.07
2023-04-06T17:48:07.730Z,11.05
2023-04-06T17:50:38.877Z,10.83
2023-04-06T17:53:05.610Z,10.69
2023-04-06T17:55:32.011Z,10.65
2023-04-06T17:57:58.410Z,10.42
2023-04-06T18:00:25.641Z,10.54
2023-04-06T18:02:53.630Z,10.42
2023-04-06T18:05:21.271Z,10.30
2023-04-06T18:07:48.480Z,10.26
2023-04-06T18:10:15.041Z,10.15
2023-04-06T18:12:41.496Z,9.98
2023-04-06T18:15:08.165Z,10.13
2023-04-06T18:17:34.906Z,9.98
2023-04-06T18:20:01.422Z,10.07
2023-04-06T18:22:28.453Z,9.96
2023-04-06T18:24:54.925Z,9.93
2023-04-06T18:27:21.681Z,9.81
2023-04-06T18:29:48.104Z,9.79
2023-04-06T18:32:16.591Z,9.80
2023-04-06T18:34:43.164Z,9.71
2023-04-06T18:37:09.675Z,9.62
2023-04-06T18:39:36.236Z,9.54
2023-04-06T18:42:03.155Z,9.49
2023-04-06T18:44:31.579Z,9.41
2023-04-06T18:46:58.214Z,9.30
2023-04-06T18:49:24.684Z,9.32
2023-04-06T18:51:51.212Z,9.32
2023-04-06T18:54:17.615Z,9.27
2023-04-06T18:56:44.009Z,9.25
2023-04-06T18:59:10.654Z,9.14
2023-04-06T19:01:40.785Z,9.00
2023-04-06T19:04:07.429Z,9.02
2023-04-06T19:06:33.949Z,9.01
2023-04-06T19:09:00.379Z,8.88
2023-04-06T19:11:27.276Z,8.89
2023-04-06T19:13:53.890Z,8.94
2023-04-06T19:16:20.619Z,8.79
2023-04-06T19:18:47.061Z,8.75
2023-04-06T19:21:21.525Z,8.62
2023-04-06T19:23:49.518Z,8.57
2023-04-06T19:26:17.060Z,8.46
2023-04-06T19:28:44.388Z,8.46
2023-04-06T19:31:13.002Z,8.45
2023-04-06T19:33:40.413Z,8.25
2023-04-06T19:36:07.719Z,8.25
2023-04-06T19:38:34.619Z,8.28
2023-04-06T19:41:01.741Z,8.31
2023-04-06T19:43:28.269Z,8.18
2023-04-06T19:45:54.727Z,8.21
2023-04-06T19:48:21.262Z,8.07
2023-04-06T19:50:47.723Z,8.11
2023-04-06T19:53:14.166Z,8.12
2023-04-06T19:55:40.701Z,8.10
2023-04-06T19:58:07.126Z,8.05
2023-04-06T20:00:33.583Z,8.07
2023-04-06T20:03:00.281Z,7.95
2023-04-06T20:05:26.954Z,8.01
2023-04-06T20:07:53.458Z,7.99
2023-04-06T20:10:19.863Z,7.96
2023-04-06T20:12:46.306Z,7.95
2023-04-06T20:15:12.760Z,7.74
2023-04-06T20:17:39.225Z,7.70
2023-04-06T20:20:06.254Z,7.66
2023-04-06T20:22:32.653Z,7.53
2023-04-06T20:24:59.080Z,7.57
2023-04-06T20:27:25.549Z,7.48
2023-04-06T20:29:52.074Z,7.53
2023-04-06T20:32:20.997Z,7.57
2023-04-06T20:34:48.294Z,7.59
2023-04-06T20:37:15.163Z,7.53
2023-04-06T20:39:41.874Z,7.59
2023-04-06T20:42:08.559Z,7.60
2023-04-06T20:44:35.623Z,7.55
2023-04-06T20:47:03.628Z,7.53
2023-04-06T20:49:30.181Z,7.56
2023-04-06T20:51:57.194Z,7.49
2023-04-06T20:54:23.638Z,7.49
2023-04-06T20:56:50.227Z,7.35
2023-04-06T20:59:16.639Z,7.23
2023-04-06T21:01:43.369Z,7.29
2023-04-06T21:04:10.040Z,7.25
2023-04-06T21:06:36.628Z,7.20
2023-04-06T21:09:03.553Z,7.14
2023-04-06T21:11:29.990Z,7.06
2023-04-06T21:13:56.501Z,7.01
2023-04-06T21:16:23.126Z,6.95
2023-04-06T21:18:49.571Z,6.88
2023-04-06T21:21:15.975Z,6.84
2023-04-06T21:23:42.370Z,6.82
2023-04-06T21:26:12.140Z,6.79
2023-04-06T21:28:38.855Z,6.76
2023-04-06T21:31:08.792Z,6.66
2023-04-06T21:33:35.402Z,6.69
2023-04-06T21:36:08.417Z,6.64
2023-04-06T21:38:35.224Z,6.58
2023-04-06T21:41:01.683Z,6.51
2023-04-06T21:43:28.103Z,6.46
2023-04-06T21:45:54.617Z,6.42
2023-04-06T21:48:21.031Z,6.34
2023-04-06T21:50:47.480Z,6.25
2023-04-06T21:53:13.938Z,6.18
2023-04-06T21:55:45.996Z,6.08
2023-04-06T21:58:12.617Z,5.98
2023-04-06T22:00:39.197Z,5.97
2023-04-06T22:03:05.756Z,5.95
2023-04-06T22:05:32.695Z,5.99
2023-04-06T22:08:02.032Z,5.91
2023-04-06T22:10:29.261Z,5.94
2023-04-06T22:12:55.841Z,5.88
2023-04-06T22:15:22.309Z,5.83
2023-04-06T22:17:48.730Z,5.73
2023-04-06T22:20:15.595Z,5.70
2023-04-06T22:22:42.067Z,5.58
2023-04-06T22:25:08.923Z,5.51
2023-04-06T22:27:35.543Z,5.50
2023-04-06T22:30:02.594Z,5.45
2023-04-06T22:32:29.167Z,5.39
2023-04-06T22:34:55.765Z,5.31
2023-04-06T22:37:22.198Z,5.23
2023-04-06T22:39:48.598Z,5.10
2023-04-06T22:42:14.998Z,5.16
2023-04-06T22:44:41.425Z,5.21
2023-04-06T22:47:07.915Z,5.12
2023-04-06T22:49:34.344Z,5.10
2023-04-06T22:52:00.806Z,5.08
2023-04-06T22:54:27.206Z,5.06
2023-04-06T22:56:53.796Z,4.97
2023-04-06T22:59:20.627Z,4.90
2023-04-06T23:01:47.088Z,4.87
2023-04-06T23:04:13.615Z,4.81
2023-04-06T23:06:40.075Z,4.76
2023-04-06T23:09:06.484Z,4.75
2023-04-06T23:11:33.211Z,4.68
2023-04-06T23:13:59.610Z,4.69
2023-04-06T23:16:26.398Z,4.68
2023-04-06T23:18:52.820Z,4.65
2023-04-06T23:21:19.204Z,4.61
2023-04-06T23:23:45.921Z,4.63
2023-04-06T23:26:12.367Z,4.57
2023-04-06T23:28:38.744Z,4.51
2023-04-06T23:31:05.179Z,4.45
2023-04-06T23:33:31.565Z,4.44
2023-04-06T23:35:57.961Z,4.42
2023-04-06T23:38:24.456Z,4.41
2023-04-06T23:40:51.254Z,4.43
2023-04-06T23:43:17.645Z,4.38
2023-04-06T23:45:44.062Z,4.36
2023-04-06T23:48:10.767Z,4.32
2023-04-06T23:50:37.786Z,4.29
2023-04-06T23:53:04.704Z,4.28
2023-04-06T23:55:31.590Z,4.23
2023-04-06T23:57:57.985Z,4.18
